createdAt,value
2018-06-17T00:00:03.028Z,148
2018-06-17T00:00:15.664Z,148
2018-06-17T00:00:28.134Z,148
2018-06-17T00:00:40.620Z,147
2018-06-17T00:00:53.042Z,146
2018-06-17T00:01:05.606Z,147
2018-06-17T00:01:18.026Z,147
2018-06-17T00:01:30.455Z,159
2018-06-17T00:01:42.895Z,159
2018-06-17T00:01:55.303Z,153
2018-06-17T00:02:07.718Z,153
2018-06-17T00:02:20.121Z,153
2018-06-17T00:02:32.661Z,153
2018-06-17T00:02:45.122Z,153
2018-06-17T00:02:57.539Z,153
2018-06-17T00:03:09.957Z,153
2018-06-17T00:03:22.399Z,153
2018-06-17T00:03:34.823Z,153
2018-06-17T00:03:47.219Z,135
2018-06-17T00:03:59.645Z,135
2018-06-17T00:04:12.039Z,136
2018-06-17T00:04:24.432Z,136
2018-06-17T00:04:36.832Z,138
2018-06-17T00:04:49.232Z,138
2018-06-17T00:05:01.649Z,138
2018-06-17T00:05:14.063Z,138
2018-06-17T00:05:26.502Z,138
2018-06-17T00:05:38.962Z,138
2018-06-17T00:05:51.380Z,138
2018-06-17T00:06:03.776Z,138
2018-06-17T00:06:16.209Z,138
2018-06-17T00:06:28.603Z,138
2018-06-17T00:06:41.002Z,138
2018-06-17T00:06:53.422Z,138
2018-06-17T00:07:05.981Z,138
2018-06-17T00:07:18.368Z,138
2018-06-17T00:07:30.810Z,138
2018-06-17T00:07:43.348Z,138
2018-06-17T00:07:55.724Z,138
2018-06-17T00:08:08.136Z,138
2018-06-17T00:08:20.550Z,138
2018-06-17T00:08:32.951Z,140
2018-06-17T00:08:45.349Z,146
2018-06-17T00:08:57.745Z,146
2018-06-17T00:09:10.179Z,146
2018-06-17T00:09:22.575Z,146
2018-06-17T00:09:35.000Z,167
2018-06-17T00:09:47.404Z,165
2018-06-17T00:09:59.811Z,149
2018-06-17T00:10:12.295Z,147
2018-06-17T00:10:24.698Z,147
2018-06-17T00:10:37.101Z,147
2018-06-17T00:10:49.508Z,147
2018-06-17T00:11:01.916Z,163
2018-06-17T00:11:14.325Z,163
2018-06-17T00:11:26.740Z,163
2018-06-17T00:11:39.148Z,163
2018-06-17T00:11:51.571Z,163
2018-06-17T00:12:03.980Z,163
2018-06-17T00:12:16.378Z,182
2018-06-17T00:12:28.778Z,182
2018-06-17T00:12:41.203Z,182
2018-06-17T00:12:53.603Z,182
2018-06-17T00:13:06.012Z,182
2018-06-17T00:13:18.415Z,182
2018-06-17T00:13:30.802Z,182
2018-06-17T00:13:43.180Z,182
2018-06-17T00:13:55.583Z,182
2018-06-17T00:14:07.994Z,182
2018-06-17T00:14:20.413Z,182
2018-06-17T00:14:32.849Z,182
2018-06-17T00:14:45.261Z,182
2018-06-17T00:14:57.665Z,182
2018-06-17T00:15:10.091Z,182
2018-06-17T00:15:22.488Z,182
2018-06-17T00:15:34.893Z,182
2018-06-17T00:15:47.306Z,182
2018-06-17T00:15:59.733Z,180
2018-06-17T00:16:12.191Z,155
2018-06-17T00:16:24.617Z,161
2018-06-17T00:16:37.027Z,161
2018-06-17T00:16:49.424Z,159
2018-06-17T00:17:01.819Z,159
2018-06-17T00:17:14.212Z,158
2018-06-17T00:17:26.606Z,158
2018-06-17T00:17:38.998Z,158
2018-06-17T00:17:51.408Z,158
2018-06-17T00:18:04.003Z,158
2018-06-17T00:18:16.417Z,158
2018-06-17T00:18:28.804Z,158
2018-06-17T00:18:41.192Z,158
2018-06-17T00:18:53.619Z,158
2018-06-17T00:19:06.530Z,158
2018-06-17T00:19:18.911Z,158
2018-06-17T00:19:31.333Z,158
2018-06-17T00:19:43.765Z,158
2018-06-17T00:19:56.177Z,158
2018-06-17T00:20:08.574Z,157
2018-06-17T00:20:20.969Z,157
2018-06-17T00:20:33.360Z,157
2018-06-17T00:20:45.773Z,157
2018-06-17T00:20:58.164Z,157
2018-06-17T00:21:10.596Z,157
2018-06-17T00:21:23.016Z,157
2018-06-17T00:21:35.408Z,157
2018-06-17T00:21:47.798Z,157
2018-06-17T00:22:00.206Z,157
2018-06-17T00:22:12.587Z,157
2018-06-17T00:22:24.970Z,167
2018-06-17T00:22:37.380Z,167
2018-06-17T00:22:49.871Z,167
2018-06-17T00:23:02.325Z,165
2018-06-17T00:23:14.737Z,165
2018-06-17T00:23:27.160Z,165
2018-06-17T00:23:39.576Z,146
2018-06-17T00:23:52.043Z,157
2018-06-17T00:24:04.448Z,151
2018-06-17T00:24:16.868Z,151
2018-06-17T00:24:29.258Z,151
2018-06-17T00:24:41.666Z,151
2018-06-17T00:24:54.284Z,151
2018-06-17T00:25:06.699Z,147
2018-06-17T00:25:19.100Z,146
2018-06-17T00:25:31.512Z,135
2018-06-17T00:25:43.921Z,135
2018-06-17T00:25:56.324Z,135
2018-06-17T00:26:08.729Z,135
2018-06-17T00:26:21.140Z,135
2018-06-17T00:26:33.549Z,135
2018-06-17T00:26:45.967Z,135
2018-06-17T00:26:58.377Z,135
2018-06-17T00:27:10.811Z,135
2018-06-17T00:27:23.351Z,135
2018-06-17T00:27:35.748Z,135
2018-06-17T00:27:48.151Z,147
2018-06-17T00:28:00.541Z,148
2018-06-17T00:28:12.932Z,148
2018-06-17T00:28:25.329Z,148
2018-06-17T00:28:37.733Z,148
2018-06-17T00:28:50.300Z,148
2018-06-17T00:29:02.691Z,148
2018-06-17T00:29:15.097Z,148
2018-06-17T00:29:27.513Z,148
2018-06-17T00:29:39.893Z,148
2018-06-17T00:29:52.275Z,148
2018-06-17T00:30:04.672Z,148
2018-06-17T00:30:17.092Z,148
2018-06-17T00:30:29.501Z,148
2018-06-17T00:30:41.911Z,148
2018-06-17T00:30:54.298Z,148
2018-06-17T00:31:06.696Z,148
2018-06-17T00:31:19.105Z,148
2018-06-17T00:31:31.511Z,148
2018-06-17T00:31:43.897Z,148
2018-06-17T00:31:56.293Z,148
2018-06-17T00:32:08.689Z,148
2018-06-17T00:32:21.073Z,148
2018-06-17T00:32:33.482Z,148
2018-06-17T00:32:45.909Z,148
2018-06-17T00:32:58.305Z,148
2018-06-17T00:33:10.703Z,148
2018-06-17T00:33:23.157Z,148
2018-06-17T00:33:35.557Z,148
2018-06-17T00:33:48.115Z,148
2018-06-17T00:34:00.533Z,148
2018-06-17T00:34:12.924Z,148
2018-06-17T00:34:25.375Z,148
2018-06-17T00:34:37.793Z,148
2018-06-17T00:34:50.203Z,148
2018-06-17T00:35:02.618Z,148
2018-06-17T00:35:15.014Z,126
2018-06-17T00:35:27.463Z,126
2018-06-17T00:35:39.863Z,126
2018-06-17T00:35:52.258Z,126
2018-06-17T00:36:04.656Z,126
2018-06-17T00:36:17.044Z,126
2018-06-17T00:36:29.437Z,126
2018-06-17T00:36:41.852Z,126
2018-06-17T00:36:54.241Z,126
2018-06-17T00:37:06.638Z,126
2018-06-17T00:37:19.053Z,126
2018-06-17T00:37:31.454Z,126
2018-06-17T00:37:43.850Z,126
2018-06-17T00:37:56.339Z,126
2018-06-17T00:38:08.774Z,126
2018-06-17T00:38:21.226Z,126
2018-06-17T00:38:33.610Z,139
2018-06-17T00:38:46.017Z,139
2018-06-17T00:38:58.423Z,144
2018-06-17T00:39:11.031Z,144
2018-06-17T00:39:23.443Z,144
2018-06-17T00:39:35.843Z,149
2018-06-17T00:39:48.248Z,133
2018-06-17T00:40:00.652Z,153
2018-06-17T00:40:13.062Z,127
2018-06-17T00:40:25.487Z,132
2018-06-17T00:40:37.892Z,131
2018-06-17T00:40:50.284Z,150
2018-06-17T00:41:02.692Z,148
2018-06-17T00:41:15.081Z,163
2018-06-17T00:41:27.472Z,149
2018-06-17T00:41:39.858Z,149
2018-06-17T00:41:52.346Z,149
2018-06-17T00:42:04.751Z,140
2018-06-17T00:42:17.165Z,140
2018-06-17T00:42:29.563Z,140
2018-06-17T00:42:41.972Z,144
2018-06-17T00:42:54.361Z,144
2018-06-17T00:43:06.762Z,144
2018-06-17T00:43:19.171Z,144
2018-06-17T00:43:31.561Z,144
2018-06-17T00:43:43.977Z,144
2018-06-17T00:43:56.428Z,144
2018-06-17T00:44:08.827Z,145
2018-06-17T00:44:21.236Z,145
2018-06-17T00:44:33.634Z,159
2018-06-17T00:44:46.024Z,155
2018-06-17T00:44:58.432Z,144
2018-06-17T00:45:10.839Z,142
2018-06-17T00:45:23.241Z,142
2018-06-17T00:45:35.650Z,145
2018-06-17T00:45:48.040Z,147
2018-06-17T00:46:00.563Z,147
2018-06-17T00:46:12.962Z,147
2018-06-17T00:46:25.370Z,147
2018-06-17T00:46:37.760Z,147
2018-06-17T00:46:50.197Z,147
2018-06-17T00:47:02.616Z,147
2018-06-17T00:47:15.398Z,147
2018-06-17T00:47:28.482Z,147
2018-06-17T00:47:40.903Z,147
2018-06-17T00:47:53.322Z,147
2018-06-17T00:48:05.728Z,147
2018-06-17T00:48:18.119Z,147
2018-06-17T00:48:30.912Z,147
2018-06-17T00:48:43.315Z,147
2018-06-17T00:48:55.734Z,136
2018-06-17T00:49:08.144Z,151
2018-06-17T00:49:20.552Z,149
2018-06-17T00:49:32.933Z,159
2018-06-17T00:49:45.339Z,159
2018-06-17T00:49:57.767Z,160
2018-06-17T00:50:10.195Z,160
2018-06-17T00:50:22.596Z,160
2018-06-17T00:50:34.994Z,160
2018-06-17T00:50:47.400Z,160
2018-06-17T00:50:59.798Z,160
2018-06-17T00:51:12.264Z,160
2018-06-17T00:51:24.670Z,159
2018-06-17T00:51:37.065Z,157
2018-06-17T00:51:49.479Z,157
2018-06-17T00:52:01.882Z,157
2018-06-17T00:52:14.267Z,157
2018-06-17T00:52:26.693Z,157
2018-06-17T00:52:39.084Z,157
2018-06-17T00:52:51.496Z,157
2018-06-17T00:53:03.889Z,157
2018-06-17T00:53:16.623Z,157
2018-06-17T00:53:29.026Z,157
2018-06-17T00:53:41.425Z,157
2018-06-17T00:53:53.819Z,157
2018-06-17T00:54:06.217Z,157
2018-06-17T00:54:18.631Z,157
2018-06-17T00:54:31.035Z,157
2018-06-17T00:54:43.453Z,157
2018-06-17T00:54:55.851Z,157
2018-06-17T00:55:08.297Z,157
2018-06-17T00:55:20.708Z,157
2018-06-17T00:55:33.130Z,157
2018-06-17T00:55:45.529Z,157
2018-06-17T00:55:57.942Z,157
2018-06-17T00:56:10.342Z,157
2018-06-17T00:56:22.742Z,157
2018-06-17T00:56:35.144Z,157
2018-06-17T00:56:47.539Z,157
2018-06-17T00:56:59.957Z,158
2018-06-17T00:57:12.355Z,170
2018-06-17T00:57:24.750Z,171
2018-06-17T00:57:37.161Z,170
2018-06-17T00:57:49.574Z,170
2018-06-17T00:58:01.951Z,170
2018-06-17T00:58:14.371Z,159
2018-06-17T00:58:26.761Z,159
2018-06-17T00:58:39.179Z,159
2018-06-17T00:58:51.566Z,159
2018-06-17T00:59:03.972Z,155
2018-06-17T00:59:16.382Z,155
2018-06-17T00:59:28.784Z,155
2018-06-17T00:59:41.173Z,155
2018-06-17T00:59:53.547Z,155
2018-06-17T01:00:05.953Z,155
2018-06-17T01:00:18.393Z,155
2018-06-17T01:00:30.836Z,155
2018-06-17T01:00:43.269Z,155
2018-06-17T01:00:55.703Z,155
2018-06-17T01:01:08.246Z,155
2018-06-17T01:01:20.674Z,155
2018-06-17T01:01:33.063Z,155
2018-06-17T01:01:45.469Z,155
2018-06-17T01:01:57.897Z,155
2018-06-17T01:02:10.318Z,155
2018-06-17T01:02:22.741Z,155
2018-06-17T01:02:35.304Z,155
2018-06-17T01:02:47.737Z,155
2018-06-17T01:03:00.161Z,155
2018-06-17T01:03:12.574Z,155
2018-06-17T01:03:24.995Z,155
2018-06-17T01:03:37.405Z,155
2018-06-17T01:03:49.793Z,155
2018-06-17T01:04:02.208Z,155
2018-06-17T01:04:14.625Z,155
2018-06-17T01:04:27.084Z,155
2018-06-17T01:04:39.552Z,155
2018-06-17T01:04:51.940Z,155
2018-06-17T01:05:04.456Z,155
2018-06-17T01:05:16.906Z,155
2018-06-17T01:05:29.330Z,155
2018-06-17T01:05:41.752Z,155
2018-06-17T01:05:54.176Z,155
2018-06-17T01:06:06.577Z,155
2018-06-17T01:06:18.958Z,154
2018-06-17T01:06:31.366Z,131
2018-06-17T01:06:43.764Z,155
2018-06-17T01:06:56.160Z,155
2018-06-17T01:07:08.713Z,156
2018-06-17T01:07:21.120Z,156
2018-06-17T01:07:33.536Z,156
2018-06-17T01:07:45.931Z,156
2018-06-17T01:07:58.383Z,156
2018-06-17T01:08:10.813Z,156
2018-06-17T01:08:23.218Z,156
2018-06-17T01:08:35.615Z,156
2018-06-17T01:08:48.040Z,156
2018-06-17T01:09:00.423Z,156
2018-06-17T01:09:12.825Z,156
2018-06-17T01:09:25.236Z,156
2018-06-17T01:09:37.625Z,156
2018-06-17T01:09:50.052Z,156
2018-06-17T01:10:02.482Z,156
2018-06-17T01:10:14.870Z,156
2018-06-17T01:10:27.265Z,156
2018-06-17T01:10:39.680Z,156
2018-06-17T01:10:52.162Z,156
2018-06-17T01:11:04.563Z,139
2018-06-17T01:11:16.975Z,142
2018-06-17T01:11:29.393Z,144
2018-06-17T01:11:41.866Z,144
2018-06-17T01:11:54.266Z,144
2018-06-17T01:12:06.767Z,144
2018-06-17T01:12:19.191Z,144
2018-06-17T01:12:31.600Z,144
2018-06-17T01:12:44.006Z,144
2018-06-17T01:12:56.395Z,144
2018-06-17T01:13:08.794Z,144
2018-06-17T01:13:21.376Z,144
2018-06-17T01:13:33.777Z,144
2018-06-17T01:13:46.210Z,144
2018-06-17T01:13:58.619Z,144
2018-06-17T01:14:11.017Z,144
2018-06-17T01:14:23.424Z,144
2018-06-17T01:14:35.826Z,142
2018-06-17T01:14:48.242Z,142
2018-06-17T01:15:00.629Z,142
2018-06-17T01:15:13.041Z,140
2018-06-17T01:15:25.446Z,124
2018-06-17T01:15:37.861Z,155
2018-06-17T01:15:50.253Z,155
2018-06-17T01:16:02.666Z,153
2018-06-17T01:16:15.077Z,134
2018-06-17T01:16:27.522Z,150
2018-06-17T01:16:39.970Z,150
2018-06-17T01:16:52.371Z,150
2018-06-17T01:17:04.802Z,153
2018-06-17T01:17:17.288Z,156
2018-06-17T01:17:29.714Z,156
2018-06-17T01:17:42.152Z,138
2018-06-17T01:17:54.702Z,138
2018-06-17T01:18:07.111Z,145
2018-06-17T01:18:19.506Z,164
2018-06-17T01:18:31.898Z,145
2018-06-17T01:18:44.307Z,147
2018-06-17T01:18:56.967Z,149
2018-06-17T01:19:09.895Z,142
2018-06-17T01:19:22.309Z,142
2018-06-17T01:19:34.715Z,142
2018-06-17T01:19:47.128Z,142
2018-06-17T01:19:59.527Z,142
2018-06-17T01:20:11.925Z,134
2018-06-17T01:20:24.385Z,134
2018-06-17T01:20:36.841Z,134
2018-06-17T01:20:49.260Z,134
2018-06-17T01:21:01.688Z,134
2018-06-17T01:21:14.095Z,134
2018-06-17T01:21:26.525Z,134
2018-06-17T01:21:38.969Z,136
2018-06-17T01:21:51.364Z,136
2018-06-17T01:22:03.765Z,136
2018-06-17T01:22:16.179Z,136
2018-06-17T01:22:28.613Z,138
2018-06-17T01:22:41.043Z,155
2018-06-17T01:22:53.450Z,154
2018-06-17T01:23:05.862Z,154
2018-06-17T01:23:18.229Z,154
2018-06-17T01:23:30.608Z,154
2018-06-17T01:23:43.014Z,150
2018-06-17T01:23:55.433Z,134
2018-06-17T01:24:07.828Z,149
2018-06-17T01:24:20.249Z,144
2018-06-17T01:24:32.644Z,157
2018-06-17T01:24:45.045Z,159
2018-06-17T01:24:57.840Z,155
2018-06-17T01:25:10.243Z,147
2018-06-17T01:25:22.658Z,147
2018-06-17T01:25:35.040Z,153
2018-06-17T01:25:47.477Z,153
2018-06-17T01:25:59.895Z,153
2018-06-17T01:26:12.341Z,153
2018-06-17T01:26:24.877Z,148
2018-06-17T01:26:37.260Z,147
2018-06-17T01:26:49.646Z,147
2018-06-17T01:27:02.056Z,147
2018-06-17T01:27:14.462Z,147
2018-06-17T01:27:27.003Z,147
2018-06-17T01:27:39.421Z,147
2018-06-17T01:27:51.823Z,147
2018-06-17T01:28:04.240Z,147
2018-06-17T01:28:16.654Z,147
2018-06-17T01:28:29.083Z,147
2018-06-17T01:28:41.488Z,147
2018-06-17T01:28:53.906Z,148
2018-06-17T01:29:06.311Z,148
2018-06-17T01:29:18.717Z,148
2018-06-17T01:29:31.101Z,137
2018-06-17T01:29:43.502Z,137
2018-06-17T01:29:56.132Z,137
2018-06-17T01:30:08.554Z,137
2018-06-17T01:30:20.968Z,148
2018-06-17T01:30:33.366Z,148
2018-06-17T01:30:45.770Z,148
2018-06-17T01:30:58.174Z,148
2018-06-17T01:31:10.577Z,148
2018-06-17T01:31:22.975Z,148
2018-06-17T01:31:35.383Z,148
2018-06-17T01:31:47.796Z,148
2018-06-17T01:32:00.201Z,137
2018-06-17T01:32:12.615Z,137
2018-06-17T01:32:25.004Z,149
2018-06-17T01:32:37.392Z,150
2018-06-17T01:32:49.817Z,150
2018-06-17T01:33:02.201Z,150
2018-06-17T01:33:14.631Z,150
2018-06-17T01:33:27.036Z,150
2018-06-17T01:33:39.423Z,150
2018-06-17T01:33:51.820Z,150
2018-06-17T01:34:04.231Z,150
2018-06-17T01:34:16.624Z,150
2018-06-17T01:34:29.019Z,150
2018-06-17T01:34:41.436Z,150
2018-06-17T01:34:53.841Z,150
2018-06-17T01:35:06.428Z,150
2018-06-17T01:35:18.853Z,150
2018-06-17T01:35:31.257Z,150
2018-06-17T01:35:43.726Z,150
2018-06-17T01:35:56.130Z,150
2018-06-17T01:36:08.511Z,150
2018-06-17T01:36:20.917Z,150
2018-06-17T01:36:33.303Z,150
2018-06-17T01:36:45.713Z,150
2018-06-17T01:36:58.141Z,150
2018-06-17T01:37:10.540Z,150
2018-06-17T01:37:22.931Z,150
2018-06-17T01:37:35.335Z,150
2018-06-17T01:37:47.729Z,150
2018-06-17T01:38:00.127Z,150
2018-06-17T01:38:12.523Z,150
2018-06-17T01:38:24.927Z,150
2018-06-17T01:38:37.308Z,150
2018-06-17T01:38:49.742Z,150
2018-06-17T01:39:02.137Z,150
2018-06-17T01:39:14.555Z,150
2018-06-17T01:39:26.940Z,150
2018-06-17T01:39:39.336Z,150
2018-06-17T01:39:51.872Z,150
2018-06-17T01:40:04.306Z,150
2018-06-17T01:40:16.709Z,150
2018-06-17T01:40:29.132Z,150
2018-06-17T01:40:41.548Z,150
2018-06-17T01:40:53.947Z,150
2018-06-17T01:41:06.348Z,150
2018-06-17T01:41:18.900Z,150
2018-06-17T01:41:31.317Z,150
2018-06-17T01:41:44.101Z,150
2018-06-17T01:41:56.502Z,150
2018-06-17T01:42:08.884Z,150
2018-06-17T01:42:21.301Z,150
2018-06-17T01:42:33.707Z,150
2018-06-17T01:42:46.128Z,150
2018-06-17T01:42:58.510Z,150
2018-06-17T01:43:10.928Z,150
2018-06-17T01:43:23.321Z,150
2018-06-17T01:43:35.745Z,150
2018-06-17T01:43:48.134Z,150
2018-06-17T01:44:00.537Z,150
2018-06-17T01:44:12.969Z,150
2018-06-17T01:44:25.371Z,150
2018-06-17T01:44:37.752Z,150
2018-06-17T01:44:50.161Z,150
2018-06-17T01:45:02.544Z,150
2018-06-17T01:45:14.937Z,150
2018-06-17T01:45:27.338Z,150
2018-06-17T01:45:39.734Z,150
2018-06-17T01:45:52.275Z,150
2018-06-17T01:46:04.689Z,150
2018-06-17T01:46:17.085Z,150
2018-06-17T01:46:29.486Z,150
2018-06-17T01:46:41.874Z,150
2018-06-17T01:46:54.250Z,150
2018-06-17T01:47:06.639Z,156
2018-06-17T01:47:19.077Z,155
2018-06-17T01:47:31.476Z,161
2018-06-17T01:47:43.892Z,161
2018-06-17T01:47:56.283Z,161
2018-06-17T01:48:08.688Z,161
2018-06-17T01:48:21.100Z,161
2018-06-17T01:48:33.642Z,161
2018-06-17T01:48:46.039Z,127
2018-06-17T01:48:58.440Z,142
2018-06-17T01:49:10.846Z,142
2018-06-17T01:49:23.239Z,142
2018-06-17T01:49:35.632Z,142
2018-06-17T01:49:48.028Z,142
2018-06-17T01:50:00.440Z,142
2018-06-17T01:50:12.841Z,142
2018-06-17T01:50:25.245Z,142
2018-06-17T01:50:37.893Z,142
2018-06-17T01:50:50.806Z,142
2018-06-17T01:51:03.200Z,143
2018-06-17T01:51:15.600Z,143
2018-06-17T01:51:27.989Z,143
2018-06-17T01:51:40.380Z,143
2018-06-17T01:51:53.008Z,153
2018-06-17T01:52:05.435Z,149
2018-06-17T01:52:17.842Z,149
2018-06-17T01:52:30.290Z,150
2018-06-17T01:52:42.755Z,149
2018-06-17T01:52:55.201Z,149
2018-06-17T01:53:07.658Z,149
2018-06-17T01:53:20.054Z,150
2018-06-17T01:53:32.508Z,150
2018-06-17T01:53:45.077Z,150
2018-06-17T01:53:57.484Z,150
2018-06-17T01:54:09.916Z,150
2018-06-17T01:54:22.306Z,150
2018-06-17T01:54:34.721Z,150
2018-06-17T01:54:47.101Z,150
2018-06-17T01:54:59.481Z,150
2018-06-17T01:55:11.883Z,150
2018-06-17T01:55:24.298Z,150
2018-06-17T01:55:36.704Z,149
2018-06-17T01:55:49.118Z,150
2018-06-17T01:56:01.507Z,150
2018-06-17T01:56:13.905Z,150
2018-06-17T01:56:26.303Z,150
2018-06-17T01:56:38.709Z,150
2018-06-17T01:56:51.155Z,150
2018-06-17T01:57:03.559Z,150
2018-06-17T01:57:15.960Z,149
2018-06-17T01:57:28.344Z,150
2018-06-17T01:57:40.736Z,150
2018-06-17T01:57:53.168Z,150
2018-06-17T01:58:05.550Z,150
2018-06-17T01:58:17.948Z,150
2018-06-17T01:58:30.342Z,150
2018-06-17T01:58:42.736Z,149
2018-06-17T01:58:55.174Z,150
2018-06-17T01:59:07.596Z,150
2018-06-17T01:59:20.045Z,150
2018-06-17T01:59:32.441Z,150
2018-06-17T01:59:44.829Z,150
2018-06-17T01:59:57.259Z,150
2018-06-17T02:00:09.674Z,150
2018-06-17T02:00:22.104Z,150
2018-06-17T02:00:34.558Z,150
2018-06-17T02:00:46.980Z,150
2018-06-17T02:00:59.581Z,150
2018-06-17T02:01:12.057Z,150
2018-06-17T02:01:24.530Z,150
2018-06-17T02:01:36.931Z,149
2018-06-17T02:01:49.342Z,150
2018-06-17T02:02:01.793Z,150
2018-06-17T02:02:14.217Z,150
2018-06-17T02:02:26.620Z,149
2018-06-17T02:02:39.196Z,149
2018-06-17T02:02:51.593Z,150
2018-06-17T02:03:04.016Z,150
2018-06-17T02:03:16.445Z,150
2018-06-17T02:03:28.864Z,150
2018-06-17T02:03:41.287Z,150
2018-06-17T02:03:53.692Z,150
2018-06-17T02:04:06.098Z,150
2018-06-17T02:04:18.537Z,150
2018-06-17T02:04:31.005Z,150
2018-06-17T02:04:43.405Z,150
2018-06-17T02:04:55.824Z,150
2018-06-17T02:05:08.239Z,150
2018-06-17T02:05:20.646Z,150
2018-06-17T02:05:33.067Z,150
2018-06-17T02:05:45.480Z,150
2018-06-17T02:05:57.895Z,150
2018-06-17T02:06:10.305Z,149
2018-06-17T02:06:22.698Z,149
2018-06-17T02:06:35.142Z,150
2018-06-17T02:06:47.549Z,150
2018-06-17T02:07:00.229Z,149
2018-06-17T02:07:12.788Z,149
2018-06-17T02:07:25.201Z,149
2018-06-17T02:07:37.591Z,150
2018-06-17T02:07:49.987Z,150
2018-06-17T02:08:02.398Z,149
2018-06-17T02:08:14.828Z,150
2018-06-17T02:08:27.287Z,150
2018-06-17T02:08:39.667Z,150
2018-06-17T02:08:52.072Z,150
2018-06-17T02:09:04.471Z,150
2018-06-17T02:09:16.889Z,150
2018-06-17T02:09:29.282Z,150
2018-06-17T02:09:41.710Z,150
2018-06-17T02:09:54.102Z,150
2018-06-17T02:10:06.514Z,150
2018-06-17T02:10:18.898Z,149
2018-06-17T02:10:31.285Z,150
2018-06-17T02:10:43.724Z,150
2018-06-17T02:10:56.113Z,150
2018-06-17T02:11:08.516Z,150
2018-06-17T02:11:20.927Z,150
2018-06-17T02:11:33.325Z,150
2018-06-17T02:11:45.740Z,149
2018-06-17T02:11:58.137Z,150
2018-06-17T02:12:10.597Z,150
2018-06-17T02:12:22.996Z,150
2018-06-17T02:12:35.408Z,150
2018-06-17T02:12:47.806Z,150
2018-06-17T02:13:00.188Z,150
2018-06-17T02:13:12.592Z,149
2018-06-17T02:13:24.998Z,150
2018-06-17T02:13:37.422Z,149
2018-06-17T02:13:49.860Z,150
2018-06-17T02:14:02.270Z,150
2018-06-17T02:14:14.742Z,150
2018-06-17T02:14:27.128Z,149
2018-06-17T02:14:39.525Z,150
2018-06-17T02:14:51.935Z,149
2018-06-17T02:15:04.335Z,149
2018-06-17T02:15:16.740Z,149
2018-06-17T02:15:29.126Z,150
2018-06-17T02:15:41.534Z,150
2018-06-17T02:15:53.945Z,150
2018-06-17T02:16:06.353Z,150
2018-06-17T02:16:18.786Z,149
2018-06-17T02:16:31.193Z,149
2018-06-17T02:16:43.583Z,149
2018-06-17T02:16:55.966Z,150
2018-06-17T02:17:08.397Z,150
2018-06-17T02:17:20.804Z,150
2018-06-17T02:17:33.209Z,150
2018-06-17T02:17:45.607Z,150
2018-06-17T02:17:58.132Z,150
2018-06-17T02:18:10.533Z,149
2018-06-17T02:18:22.957Z,149
2018-06-17T02:18:35.363Z,149
2018-06-17T02:18:47.763Z,149
2018-06-17T02:19:00.165Z,149
2018-06-17T02:19:12.824Z,150
2018-06-17T02:19:25.234Z,150
2018-06-17T02:19:37.646Z,150
2018-06-17T02:19:50.049Z,150
2018-06-17T02:20:02.477Z,149
2018-06-17T02:20:14.870Z,149
2018-06-17T02:20:27.285Z,150
2018-06-17T02:20:39.673Z,150
2018-06-17T02:20:52.063Z,150
2018-06-17T02:21:04.457Z,150
2018-06-17T02:21:16.851Z,150
2018-06-17T02:21:29.265Z,150
2018-06-17T02:21:41.679Z,149
2018-06-17T02:21:54.067Z,150
2018-06-17T02:22:06.510Z,150
2018-06-17T02:22:18.898Z,149
2018-06-17T02:22:31.294Z,150
2018-06-17T02:22:43.712Z,150
2018-06-17T02:22:56.114Z,150
2018-06-17T02:23:08.552Z,150
2018-06-17T02:23:20.934Z,150
2018-06-17T02:23:33.328Z,149
2018-06-17T02:23:45.732Z,149
2018-06-17T02:23:58.139Z,149
2018-06-17T02:24:10.782Z,150
2018-06-17T02:24:23.175Z,150
2018-06-17T02:24:35.577Z,150
2018-06-17T02:24:47.997Z,150
2018-06-17T02:25:00.618Z,150
2018-06-17T02:25:13.013Z,149
2018-06-17T02:25:25.414Z,150
2018-06-17T02:25:37.816Z,149
2018-06-17T02:25:50.224Z,150
2018-06-17T02:26:02.616Z,149
2018-06-17T02:26:15.031Z,150
2018-06-17T02:26:27.423Z,150
2018-06-17T02:26:39.841Z,150
2018-06-17T02:26:52.224Z,149
2018-06-17T02:27:04.664Z,149
2018-06-17T02:27:17.186Z,149
2018-06-17T02:27:29.581Z,150
2018-06-17T02:27:41.987Z,150
2018-06-17T02:27:54.380Z,150
2018-06-17T02:28:06.784Z,150
2018-06-17T02:28:19.179Z,150
2018-06-17T02:28:31.567Z,150
2018-06-17T02:28:43.970Z,149
2018-06-17T02:28:56.367Z,149
2018-06-17T02:29:08.757Z,149
2018-06-17T02:29:21.170Z,149
2018-06-17T02:29:33.576Z,149
2018-06-17T02:29:45.967Z,150
2018-06-17T02:29:58.367Z,149
2018-06-17T02:30:10.793Z,149
2018-06-17T02:30:23.211Z,150
2018-06-17T02:30:35.623Z,150
2018-06-17T02:30:48.041Z,150
2018-06-17T02:31:00.457Z,150
2018-06-17T02:31:12.902Z,149
2018-06-17T02:31:25.311Z,149
2018-06-17T02:31:37.739Z,149
2018-06-17T02:31:50.237Z,150
2018-06-17T02:32:02.635Z,150
2018-06-17T02:32:15.078Z,150
2018-06-17T02:32:27.543Z,150
2018-06-17T02:32:40.038Z,149
2018-06-17T02:32:52.466Z,149
2018-06-17T02:33:04.927Z,149
2018-06-17T02:33:17.547Z,149
2018-06-17T02:33:29.962Z,149
2018-06-17T02:33:42.447Z,149
2018-06-17T02:33:54.887Z,149
2018-06-17T02:34:07.304Z,149
2018-06-17T02:34:19.707Z,150
2018-06-17T02:34:32.150Z,150
2018-06-17T02:34:44.561Z,150
2018-06-17T02:34:57.036Z,149
2018-06-17T02:35:09.465Z,149
2018-06-17T02:35:21.893Z,150
2018-06-17T02:35:34.332Z,149
2018-06-17T02:35:46.738Z,149
2018-06-17T02:35:59.152Z,150
2018-06-17T02:36:11.574Z,149
2018-06-17T02:36:24.019Z,150
2018-06-17T02:36:36.423Z,150
2018-06-17T02:36:48.861Z,150
2018-06-17T02:37:01.324Z,150
2018-06-17T02:37:13.771Z,150
2018-06-17T02:37:26.177Z,149
2018-06-17T02:37:38.595Z,149
2018-06-17T02:37:51.020Z,149
2018-06-17T02:38:03.460Z,149
2018-06-17T02:38:15.954Z,149
2018-06-17T02:38:28.381Z,149
2018-06-17T02:38:40.790Z,150
2018-06-17T02:38:53.196Z,150
2018-06-17T02:39:05.676Z,149
2018-06-17T02:39:18.091Z,150
2018-06-17T02:39:30.500Z,149
2018-06-17T02:39:42.910Z,150
2018-06-17T02:39:55.341Z,149
2018-06-17T02:40:07.754Z,150
2018-06-17T02:40:20.185Z,149
2018-06-17T02:40:32.743Z,149
2018-06-17T02:40:45.153Z,150
2018-06-17T02:40:57.564Z,150
2018-06-17T02:41:09.963Z,150
2018-06-17T02:41:22.402Z,149
2018-06-17T02:41:34.844Z,150
2018-06-17T02:41:47.362Z,149
2018-06-17T02:41:59.778Z,149
2018-06-17T02:42:12.254Z,149
2018-06-17T02:42:24.667Z,150
2018-06-17T02:42:37.068Z,150
2018-06-17T02:42:49.493Z,149
2018-06-17T02:43:01.937Z,150
2018-06-17T02:43:14.384Z,150
2018-06-17T02:43:26.841Z,149
2018-06-17T02:43:39.266Z,149
2018-06-17T02:43:51.669Z,149
2018-06-17T02:44:04.115Z,149
2018-06-17T02:44:16.606Z,150
2018-06-17T02:44:29.003Z,150
2018-06-17T02:44:41.411Z,150
2018-06-17T02:44:53.841Z,150
2018-06-17T02:45:06.249Z,149
2018-06-17T02:45:18.663Z,149
2018-06-17T02:45:31.089Z,150
2018-06-17T02:45:43.504Z,150
2018-06-17T02:45:56.070Z,150
2018-06-17T02:46:08.484Z,150
2018-06-17T02:46:20.961Z,150
2018-06-17T02:46:33.360Z,149
2018-06-17T02:46:45.805Z,149
2018-06-17T02:46:58.211Z,150
2018-06-17T02:47:10.647Z,149
2018-06-17T02:47:23.076Z,149
2018-06-17T02:47:35.482Z,150
2018-06-17T02:47:47.925Z,149
2018-06-17T02:48:00.352Z,150
2018-06-17T02:48:12.760Z,150
2018-06-17T02:48:25.159Z,150
2018-06-17T02:48:37.713Z,149
2018-06-17T02:48:50.146Z,150
2018-06-17T02:49:02.552Z,150
2018-06-17T02:49:14.953Z,150
2018-06-17T02:49:27.371Z,150
2018-06-17T02:49:39.780Z,150
2018-06-17T02:49:52.259Z,150
2018-06-17T02:50:04.688Z,149
2018-06-17T02:50:17.086Z,150
2018-06-17T02:50:29.514Z,150
2018-06-17T02:50:41.929Z,150
2018-06-17T02:50:54.380Z,150
2018-06-17T02:51:06.800Z,150